Time;durP1;ratioP1;P1;durP2;ratioP2;P2;SDS_P1;SDS_P2;PMS_P1;PMS_P2;Temp;Humidity;BMP_temperature;BMP_pressure;BME280_temperature;BME280_humidity;BME280_pressure;Samples;Min_cycle;Max_cycle;Signal;HPM_P1;HPM_P2
2024/02/12 00:01:56;;;;;;;3.13;1.00;;;;;;;6.75;72.33;96965.06;4973404;28;104223;-67
2024/02/12 00:04:28;;;;;;;2.33;1.10;;;;;;;6.82;72.70;96964.31;4963886;28;103244;-67
2024/02/12 00:06:57;;;;;;;1.27;0.73;;;;;;;6.82;72.36;96969.59;4962863;28;103006;-67
2024/02/12 00:13:51;;;;;;;4.18;1.10;;;;;;;6.79;73.25;96955.78;4957387;28;102584;-67
2024/02/12 00:24:51;;;;;;;2.20;0.80;;;;;;;6.72;73.00;96968.06;4960313;28;102629;-67
2024/02/12 00:36:23;;;;;;;0.85;0.60;;;;;;;6.88;72.24;96968.84;4957705;28;103040;-69
2024/02/12 00:47:44;;;;;;;1.92;0.68;;;;;;;6.90;72.86;96966.81;4963317;28;102875;-67
2024/02/12 00:59:23;;;;;;;2.97;0.77;;;;;;;6.74;73.13;96967.88;4961549;28;102740;-67
2024/02/12 01:02:16;;;;;;;1.48;0.90;;;;;;;6.71;73.10;96973.53;4964777;28;103158;-68
2024/02/12 01:04:58;;;;;;;1.23;0.70;;;;;;;6.66;73.62;96976.69;4959893;28;102605;-67
2024/02/12 01:07:33;;;;;;;6.35;1.02;;;;;;;6.60;73.67;96987.94;4979030;28;102625;-68
2024/02/12 01:18:53;;;;;;;1.38;0.65;;;;;;;6.55;74.20;96995.59;4959239;28;103187;-68
2024/02/12 01:30:22;;;;;;;2.28;0.80;;;;;;;6.50;74.84;96997.94;4953474;28;102927;-66
2024/02/12 01:42:24;;;;;;;6.18;1.92;;;;;;;6.55;74.28;96990.31;4962157;28;102823;-68
2024/02/12 01:45:11;;;;;;;2.00;0.65;;;;;;;6.58;73.84;96989.97;4962638;28;103024;-68
2024/02/12 01:47:50;;;;;;;1.50;0.50;;;;;;;6.56;74.26;96991.97;4962654;28;104090;-67
2024/02/12 01:50:24;;;;;;;2.38;0.73;;;;;;;6.63;74.87;96992.88;4958534;28;102654;-66
2024/02/12 01:57:21;;;;;;;1.30;0.60;;;;;;;6.63;74.55;96998.13;4959002;28;102934;-67
2024/02/12 02:00:09;;;;;;;1.80;0.57;;;;;;;6.55;74.52;96996.41;4961251;28;103150;-67
2024/02/12 02:02:48;;;;;;;1.75;0.75;;;;;;;6.62;74.66;96993.84;4962790;28;102643;-67
2024/02/12 02:05:18;;;;;;;1.92;0.85;;;;;;;6.57;75.06;96993.59;4981880;28;102615;-67
2024/02/12 02:15:44;;;;;;;2.70;1.23;;;;;;;6.51;74.92;97004.84;4971484;28;102931;-67
2024/02/12 02:18:14;;;;;;;1.83;0.68;;;;;;;6.65;75.13;97001.38;4962814;28;102947;-67
2024/02/12 02:20:43;;;;;;;1.40;0.63;;;;;;;6.61;74.82;97000.13;4962615;28;103273;-67
2024/02/12 02:37:16;;;;;;;1.42;0.52;;;;;;;6.64;74.87;97007.63;4963347;28;103122;-67
2024/02/12 02:48:35;;;;;;;1.73;0.60;;;;;;;6.63;74.14;97013.91;4967001;28;102914;-67
2024/02/12 02:59:43;;;;;;;0.60;0.57;;;;;;;6.77;74.14;97026.22;4963953;28;102828;-68
2024/02/12 05:27:46;;;;;;;1.35;0.80;;;;;;;6.26;75.14;97168.16;4875867;28;103336;-67
2024/02/12 05:30:14;;;;;;;2.25;1.10;;;;;;;6.26;75.03;97168.16;4909403;28;103213;-68
2024/02/12 05:32:44;;;;;;;1.10;0.90;;;;;;;6.29;75.31;97175.69;4871357;28;102809;-68
2024/02/12 05:35:13;;;;;;;3.80;1.52;;;;;;;6.33;75.02;97182.22;4904441;28;103940;-67
2024/02/12 05:37:41;;;;;;;4.30;1.13;;;;;;;6.27;75.08;97175.03;4905605;28;104178;-67
2024/02/12 05:49:23;;;;;;;1.73;1.00;;;;;;;6.45;74.38;97191.31;4897735;28;102820;-67
2024/02/12 05:51:51;;;;;;;4.57;1.17;;;;;;;6.41;74.21;97195.28;4891102;28;104542;-67
2024/02/12 05:54:18;;;;;;;3.58;0.98;;;;;;;6.50;74.90;97192.59;4875668;28;104384;-67
2024/02/12 05:56:46;;;;;;;3.38;1.27;;;;;;;6.52;74.41;97195.88;4903418;28;103103;-68
2024/02/12 05:59:16;;;;;;;5.38;1.35;;;;;;;6.50;74.62;97190.78;4877360;28;103244;-69
2024/02/12 06:01:44;;;;;;;2.83;1.35;;;;;;;6.49;75.10;97204.13;4877333;28;103262;-63
2024/02/12 06:13:41;;;;;;;4.50;2.25;;;;;;;6.58;74.41;97216.19;4871051;28;102799;-67
2024/02/12 06:16:09;;;;;;;6.05;1.60;;;;;;;6.65;73.58;97217.09;4857168;28;104179;-66
2024/02/12 06:23:52;;;;;;;6.13;2.13;;;;;;;6.68;73.53;97232.53;4828552;28;103918;-66
2024/02/12 06:26:21;;;;;;;5.40;2.38;;;;;;;6.62;73.89;97238.50;4862702;28;104090;-69
2024/02/12 06:28:51;;;;;;;5.20;2.67;;;;;;;6.63;73.53;97248.06;4884434;28;104502;-68
2024/02/12 06:31:19;;;;;;;6.70;2.30;;;;;;;6.65;74.31;97248.66;4857363;28;103236;-69
2024/02/12 06:33:47;;;;;;;6.97;2.33;;;;;;;6.69;73.85;97249.94;4879218;28;103913;-69
2024/02/12 06:40:49;;;;;;;7.18;2.83;;;;;;;6.59;74.92;97254.63;4900577;28;103085;-69
2024/02/12 06:43:17;;;;;;;7.20;3.00;;;;;;;6.63;74.86;97254.13;4901619;28;103298;-69
2024/02/12 06:45:48;;;;;;;9.63;3.03;;;;;;;6.56;74.97;97245.28;4903046;28;102991;-67
2024/02/12 06:52:49;;;;;;;6.40;2.33;;;;;;;6.66;75.50;97239.78;4918170;28;103510;-67
2024/02/12 06:55:17;;;;;;;8.23;3.25;;;;;;;6.74;75.31;97242.34;4926714;28;103243;-68
2024/02/12 06:57:46;;;;;;;7.07;2.80;;;;;;;6.70;74.97;97258.69;4917398;28;102855;-66
2024/02/12 07:04:42;;;;;;;5.47;2.40;;;;;;;6.73;74.20;97267.00;4894811;28;103157;-69
2024/02/12 07:07:10;;;;;;;8.48;3.42;;;;;;;6.69;74.12;97271.00;4907589;28;103796;-68
2024/02/12 07:09:38;;;;;;;9.98;3.00;;;;;;;6.52;73.83;97269.50;4920876;28;103215;-68
2024/02/12 07:16:51;;;;;;;7.40;3.10;;;;;;;6.78;73.10;97285.72;4895246;28;103552;-68
2024/02/12 07:19:19;;;;;;;13.73;3.20;;;;;;;6.84;74.21;97288.63;4917815;28;104795;-67
2024/02/12 07:21:49;;;;;;;7.13;2.50;;;;;;;6.85;73.86;97292.91;4915138;28;103644;-67
2024/02/12 07:28:50;;;;;;;8.95;2.90;;;;;;;6.86;73.40;97299.81;4887010;28;103053;-66
2024/02/12 07:35:52;;;;;;;7.57;2.28;;;;;;;6.96;73.29;97314.34;4897702;28;103848;-67
2024/02/12 07:38:22;;;;;;;5.03;2.03;;;;;;;6.87;73.93;97314.59;4888828;28;104226;-67
2024/02/12 07:40:53;;;;;;;6.70;2.50;;;;;;;6.78;73.73;97317.28;4895371;28;104601;-68
2024/02/12 07:43:22;;;;;;;8.10;2.30;;;;;;;6.92;73.12;97322.78;4900453;28;103817;-68
2024/02/12 07:45:50;;;;;;;4.20;1.98;;;;;;;6.94;72.74;97321.59;4903137;28;104225;-68
2024/02/12 07:48:18;;;;;;;4.75;1.75;;;;;;;6.96;73.45;97327.50;4911024;28;105217;-66
2024/02/12 07:50:46;;;;;;;4.65;2.50;;;;;;;6.92;72.55;97333.31;4894940;28;103384;-67
2024/02/12 07:57:58;;;;;;;3.90;1.83;;;;;;;7.15;72.48;97335.88;4897595;28;103314;-66
2024/02/12 08:00:26;;;;;;;6.13;2.00;;;;;;;7.06;72.42;97348.31;4911377;28;103874;-67
2024/02/12 08:02:54;;;;;;;4.35;1.95;;;;;;;7.09;72.15;97349.78;4908703;28;103298;-68
2024/02/12 08:05:22;;;;;;;3.45;1.63;;;;;;;6.95;72.49;97346.91;4937801;28;103136;-67
2024/02/12 08:07:50;;;;;;;7.97;1.80;;;;;;;6.93;72.43;97348.91;4916344;28;102888;-67
2024/02/12 08:10:30;;;;;;;5.60;1.83;;;;;;;7.03;72.23;97361.81;4898069;28;102878;-66
2024/02/12 08:13:02;;;;;;;2.67;1.65;;;;;;;7.08;72.33;97367.38;4914046;28;104230;-67
2024/02/12 08:15:30;;;;;;;2.95;1.60;;;;;;;7.15;71.94;97359.56;4895977;28;103305;-68
2024/02/12 08:17:58;;;;;;;3.53;1.52;;;;;;;7.18;71.99;97361.03;4900133;28;102727;-68
2024/02/12 08:20:26;;;;;;;3.80;1.65;;;;;;;7.12;71.74;97359.94;4896966;28;103886;-66
2024/02/12 08:22:55;;;;;;;2.78;1.00;;;;;;;7.24;72.12;97369.03;4900634;28;104210;-66
2024/02/12 08:25:25;;;;;;;3.45;1.10;;;;;;;7.27;70.78;97370.47;4899985;28;103130;-67
2024/02/12 08:27:53;;;;;;;3.40;1.55;;;;;;;7.36;71.74;97381.75;4893562;28;102791;-67
2024/02/12 08:30:23;;;;;;;3.53;1.45;;;;;;;7.37;70.87;97371.03;4897201;28;102919;-67
2024/02/12 08:37:37;;;;;;;4.35;1.27;;;;;;;7.53;70.82;97390.31;4900139;28;104277;-67
2024/02/12 08:40:07;;;;;;;2.20;1.08;;;;;;;7.56;70.91;97390.78;4914577;28;102817;-67
2024/02/12 08:42:41;;;;;;;3.50;1.35;;;;;;;7.46;69.81;97391.03;4925253;28;104236;-68
2024/02/12 08:45:11;;;;;;;4.25;1.05;;;;;;;7.59;69.75;97400.16;4905181;28;103357;-68
2024/02/12 08:47:40;;;;;;;2.33;1.00;;;;;;;7.35;69.36;97407.31;4900804;28;104397;-68
2024/02/12 08:50:10;;;;;;;3.47;1.50;;;;;;;7.58;70.08;97404.56;4932116;28;103005;-66
2024/02/12 08:52:39;;;;;;;2.67;1.20;;;;;;;7.72;69.38;97408.22;4909139;28;104580;-68
2024/02/12 08:55:11;;;;;;;4.35;1.50;;;;;;;7.76;69.75;97406.88;4936496;28;104557;-67
2024/02/12 08:57:42;;;;;;;2.83;1.15;;;;;;;7.53;68.97;97414.03;4930731;28;104100;-67
2024/02/12 09:00:11;;;;;;;2.08;1.13;;;;;;;7.53;69.54;97411.41;4926034;28;102946;-67
2024/02/12 09:19:34;;;;;;;2.25;0.93;;;;;;;7.88;68.21;97435.41;4812717;28;103008;-67
2024/02/12 09:31:19;;;;;;;2.10;0.90;;;;;;;8.20;68.05;97441.28;4908652;28;104198;-66
2024/02/12 09:33:47;;;;;;;1.95;0.90;;;;;;;8.42;67.73;97437.72;4917422;28;104088;-67
2024/02/12 09:36:18;;;;;;;1.92;1.00;;;;;;;8.43;66.47;97430.63;4914693;28;102978;-67
2024/02/12 09:38:47;;;;;;;2.47;1.92;;;;;;;8.47;66.27;97450.38;4921261;28;103807;-66
2024/02/12 09:41:16;;;;;;;5.28;1.20;;;;;;;8.55;65.90;97446.81;4914641;28;103167;-67
2024/02/12 09:43:44;;;;;;;1.92;1.02;;;;;;;8.46;66.35;97446.09;4904525;28;104436;-68
2024/02/12 09:46:15;;;;;;;5.13;1.48;;;;;;;8.36;66.54;97451.66;4897053;28;103988;-68
2024/02/12 09:48:44;;;;;;;2.03;0.90;;;;;;;8.35;67.11;97455.28;4917628;28;103551;-67
2024/02/12 09:51:15;;;;;;;4.30;1.38;;;;;;;8.20;67.29;97457.13;4911476;28;102761;-67
2024/02/12 10:31:46;;;;;;;4.13;1.50;;;;;;;9.57;63.84;97484.56;4873353;23;104556;-66
2024/02/12 10:34:18;;;;;;;2.60;1.10;;;;;;;9.73;62.01;97483.47;4876861;28;103243;-65
2024/02/12 10:36:50;;;;;;;3.05;1.50;;;;;;;10.05;62.11;97479.41;4891061;28;103190;-65
2024/02/12 10:39:22;;;;;;;2.75;1.30;;;;;;;9.85;62.40;97481.94;4869991;28;103044;-64
2024/02/12 10:41:54;;;;;;;3.78;1.50;;;;;;;10.06;62.18;97478.41;4905843;28;103226;-65
2024/02/12 10:44:24;;;;;;;3.35;1.40;;;;;;;10.15;61.31;97475.59;4904879;28;103267;-65
2024/02/12 10:46:54;;;;;;;4.45;1.65;;;;;;;10.09;63.02;97478.00;4906765;28;102768;-65
2024/02/12 10:49:24;;;;;;;5.50;1.50;;;;;;;10.03;62.17;97480.59;4924540;28;103076;-65
2024/02/12 10:51:54;;;;;;;3.58;1.50;;;;;;;9.52;62.84;97479.03;4911266;28;103851;-66
2024/02/12 10:54:23;;;;;;;4.57;1.67;;;;;;;9.62;63.76;97474.22;4912051;28;103214;-67
2024/02/12 10:56:51;;;;;;;6.72;1.50;;;;;;;9.32;64.18;97479.69;4909510;28;102670;-66
2024/02/12 10:59:23;;;;;;;5.22;1.60;;;;;;;9.24;65.08;97482.47;4909385;28;102986;-66
2024/02/12 11:01:51;;;;;;;7.00;3.05;;;;;;;8.91;65.26;97483.78;4905922;28;104722;-66
2024/02/12 11:04:26;;;;;;;4.18;1.52;;;;;;;8.75;65.95;97492.75;4881599;28;103230;-67
2024/02/12 11:06:55;;;;;;;4.93;1.40;;;;;;;8.76;65.80;97490.91;4889813;28;103146;-66
2024/02/12 11:09:31;;;;;;;3.03;1.70;;;;;;;8.96;65.84;97483.19;4906274;28;102627;-66
2024/02/12 11:11:59;;;;;;;2.38;1.02;;;;;;;8.94;65.75;97491.31;4911011;28;103998;-66
2024/02/12 11:14:33;;;;;;;4.55;1.52;;;;;;;9.12;64.52;97479.50;4894367;28;103221;-66
2024/02/12 11:17:04;;;;;;;4.30;1.20;;;;;;;9.26;64.40;97488.34;4909465;28;103083;-64
2024/02/12 11:19:33;;;;;;;3.60;1.42;;;;;;;9.42;63.54;97489.94;4894191;28;104255;-63
2024/02/12 11:22:06;;;;;;;4.43;1.42;;;;;;;9.48;63.95;97491.00;4902323;28;104279;-64
2024/02/12 11:24:39;;;;;;;3.00;1.20;;;;;;;9.12;64.79;97488.25;4907270;28;103260;-63
2024/02/12 11:27:09;;;;;;;5.88;1.60;;;;;;;9.27;65.12;97490.84;4906991;28;103182;-64
2024/02/12 11:29:42;;;;;;;6.55;1.50;;;;;;;9.44;64.17;97491.34;4903322;28;102777;-62
2024/02/12 11:32:11;;;;;;;4.80;1.45;;;;;;;9.49;63.74;97497.94;4888652;28;104088;-63
2024/02/12 11:34:44;;;;;;;4.80;1.35;;;;;;;9.04;64.42;97488.38;4907022;28;103258;-63
2024/02/12 11:37:18;;;;;;;2.78;1.20;;;;;;;9.28;64.31;97491.66;4906943;28;102999;-63
2024/02/12 11:39:58;;;;;;;3.77;1.53;;;;;;;9.07;64.58;97490.63;4908786;28;103102;-64
2024/02/12 11:42:29;;;;;;;4.45;1.35;;;;;;;9.07;64.81;97495.91;4907815;28;103316;-63
2024/02/12 11:45:10;;;;;;;3.33;1.50;;;;;;;8.92;64.49;97495.97;4908436;28;103252;-63
2024/02/12 11:47:53;;;;;;;2.95;1.20;;;;;;;9.32;64.50;97498.19;4916266;22;109377;-64
2024/02/12 11:51:08;;;;;;;5.95;1.40;;;;;;;9.18;63.77;97496.41;4918775;28;103850;-66
2024/02/12 11:53:42;;;;;;;3.55;1.27;;;;;;;9.35;63.38;97489.84;4925428;22;103295;-65
2024/02/12 11:56:19;;;;;;;1.92;1.10;;;;;;;9.52;64.30;97497.53;4917263;28;103880;-63
2024/02/12 11:59:19;;;;;;;1.85;1.02;;;;;;;9.51;62.75;97498.53;4907234;28;104009;-63
2024/02/12 12:02:04;;;;;;;2.67;1.33;;;;;;;9.31;62.92;97499.19;4924535;28;103942;-64
2024/02/12 12:04:37;;;;;;;4.45;1.33;;;;;;;9.29;62.57;97495.94;4925338;28;103228;-66
2024/02/12 12:07:17;;;;;;;4.22;1.77;;;;;;;9.59;62.52;97503.72;4919549;28;103274;-64
2024/02/12 12:10:01;;;;;;;3.50;1.25;;;;;;;9.54;62.85;97500.81;4934161;28;102780;-63
2024/02/12 12:12:32;;;;;;;3.53;1.00;;;;;;;9.76;62.47;97498.94;4918810;28;102711;-63
2024/02/12 12:15:05;;;;;;;4.28;1.40;;;;;;;9.49;62.73;97497.94;4921919;28;104159;-66
2024/02/12 12:17:35;;;;;;;3.83;0.90;;;;;;;9.54;63.03;97498.19;4922670;28;103056;-63
2024/02/12 12:20:16;;;;;;;2.47;1.10;;;;;;;9.26;62.67;97501.56;4942303;28;103350;-67
2024/02/12 12:22:47;;;;;;;6.88;1.30;;;;;;;9.32;62.36;97497.38;4932740;28;103225;-66
2024/02/12 12:25:18;;;;;;;3.53;1.15;;;;;;;9.39;63.41;97501.72;4927596;28;104414;-66
2024/02/12 12:27:46;;;;;;;4.53;1.17;;;;;;;9.36;61.37;97494.16;4928597;28;103264;-64
2024/02/12 12:30:16;;;;;;;2.08;1.10;;;;;;;9.26;62.80;97501.56;4930952;28;102753;-64
2024/02/12 12:32:47;;;;;;;3.40;1.27;;;;;;;9.26;61.78;97509.50;4920511;28;104087;-64
2024/02/12 12:35:16;;;;;;;2.60;0.90;;;;;;;9.54;62.44;97500.81;4928954;28;103215;-63
2024/02/12 12:37:46;;;;;;;6.07;1.60;;;;;;;9.23;62.90;97504.59;4929525;28;103237;-63
2024/02/12 12:40:19;;;;;;;2.67;1.17;;;;;;;9.35;63.03;97510.19;4931731;28;102630;-63
2024/02/12 12:42:49;;;;;;;3.42;1.05;;;;;;;9.52;62.42;97513.41;4901032;28;102717;-63
2024/02/12 12:45:21;;;;;;;2.83;1.10;;;;;;;9.78;62.06;97508.31;4910029;28;103735;-63
2024/02/12 12:47:49;;;;;;;5.13;1.98;;;;;;;9.65;61.76;97502.91;4908307;28;103240;-64
2024/02/12 12:50:17;;;;;;;4.88;1.50;;;;;;;9.53;61.28;97505.25;4911836;28;102824;-64
2024/02/12 12:52:47;;;;;;;4.45;1.33;;;;;;;9.79;61.99;97504.66;4908540;28;102862;-64
2024/02/12 12:55:17;;;;;;;3.03;0.95;;;;;;;10.06;59.98;97502.22;4909097;28;103871;-63
2024/02/12 12:57:45;;;;;;;5.32;1.52;;;;;;;10.23;61.68;97505.34;4910498;28;103255;-63
2024/02/12 13:00:19;;;;;;;6.82;1.80;;;;;;;10.47;60.57;97511.19;4910975;28;102678;-63
2024/02/12 13:02:47;;;;;;;3.10;1.10;;;;;;;10.34;60.24;97508.47;4910505;28;104080;-63
2024/02/12 13:05:15;;;;;;;5.20;1.10;;;;;;;9.99;61.58;97517.19;4907098;28;103709;-63
2024/02/12 13:07:44;;;;;;;3.92;0.95;;;;;;;10.36;60.75;97509.94;4886616;28;103303;-63
2024/02/12 13:10:37;;;;;;;4.80;1.02;;;;;;;10.21;59.89;97514.50;4879884;28;103044;-63
2024/02/12 13:13:11;;;;;;;5.07;1.10;;;;;;;9.91;61.55;97522.66;4906839;28;104054;-63
2024/02/12 13:15:44;;;;;;;6.40;1.25;;;;;;;9.87;60.81;97530.13;4908190;28;103307;-63
2024/02/12 13:18:16;;;;;;;3.10;1.10;;;;;;;9.43;60.32;97521.47;4906358;28;103358;-63
2024/02/12 13:20:47;;;;;;;2.45;1.05;;;;;;;9.49;60.97;97529.66;4893365;28;102735;-63
2024/02/12 13:23:20;;;;;;;3.50;1.70;;;;;;;9.44;61.05;97523.06;4911283;28;104251;-63
2024/02/12 13:25:51;;;;;;;1.63;1.05;;;;;;;9.62;60.66;97519.19;4908486;28;102718;-66
2024/02/12 13:28:21;;;;;;;2.90;0.80;;;;;;;9.51;60.90;97527.59;4900711;28;103197;-66
2024/02/12 13:30:51;;;;;;;2.17;1.00;;;;;;;9.45;60.81;97524.72;4891009;28;103804;-66
2024/02/12 13:33:21;;;;;;;3.22;1.02;;;;;;;9.11;62.13;97530.69;4865544;28;103174;-66
2024/02/12 13:35:49;;;;;;;3.13;1.17;;;;;;;8.92;63.39;97535.59;4895830;28;103323;-65
2024/02/12 13:38:20;;;;;;;2.65;1.40;;;;;;;8.77;63.35;97535.59;4895563;28;103255;-66
2024/02/12 13:40:49;;;;;;;3.58;1.30;;;;;;;8.72;64.96;97535.34;4905064;28;102756;-65
2024/02/12 13:43:18;;;;;;;4.05;1.17;;;;;;;9.03;63.49;97542.19;4886273;28;104291;-66
2024/02/12 13:45:50;;;;;;;2.70;1.40;;;;;;;8.91;65.01;97535.78;4898591;28;103264;-65
2024/02/12 13:48:19;;;;;;;5.90;1.20;;;;;;;9.21;63.69;97544.41;4906820;28;103107;-66
2024/02/12 13:50:48;;;;;;;3.05;1.20;;;;;;;9.40;63.64;97547.44;4908022;28;102947;-66
2024/02/12 13:53:17;;;;;;;2.97;1.23;;;;;;;9.49;63.90;97548.16;4909264;28;102743;-62
2024/02/12 13:55:49;;;;;;;5.07;1.88;;;;;;;9.70;62.15;97548.13;4911550;28;103277;-66
2024/02/12 13:58:28;;;;;;;6.90;1.35;;;;;;;9.50;63.19;97555.03;4916693;28;103174;-65
2024/02/12 14:01:09;;;;;;;4.72;1.40;;;;;;;9.33;63.39;97557.13;4919417;28;103270;-65
2024/02/12 14:04:35;;;;;;;4.03;1.50;;;;;;;9.38;61.97;97560.84;4923909;28;102781;-65
2024/02/12 14:07:38;;;;;;;4.47;1.20;;;;;;;9.37;61.27;97566.31;4890141;28;103164;-65
2024/02/12 14:10:07;;;;;;;5.47;1.25;;;;;;;9.28;61.07;97577.00;4900579;28;103097;-65
2024/02/12 14:12:35;;;;;;;2.25;0.90;;;;;;;9.26;62.09;97578.19;4895362;28;102980;-66
2024/02/12 14:15:06;;;;;;;3.83;1.45;;;;;;;9.04;61.85;97580.81;4912822;28;102712;-66
2024/02/12 14:17:42;;;;;;;4.55;1.02;;;;;;;9.03;62.20;97587.09;4912218;28;103261;-66
2024/02/12 14:20:16;;;;;;;3.60;1.10;;;;;;;9.00;62.52;97584.84;4900844;28;103315;-65
2024/02/12 14:22:45;;;;;;;5.78;1.20;;;;;;;9.17;62.48;97590.72;4907455;28;103213;-65
2024/02/12 14:25:13;;;;;;;3.75;1.00;;;;;;;9.27;62.51;97593.03;4938005;28;102859;-66
2024/02/12 14:27:42;;;;;;;4.47;1.25;;;;;;;8.95;62.75;97608.34;4915072;28;103245;-65
2024/02/12 14:30:14;;;;;;;6.57;1.40;;;;;;;9.12;62.82;97599.19;4931763;28;103043;-65
2024/02/12 14:32:42;;;;;;;5.00;1.00;;;;;;;8.93;63.59;97599.75;4916388;28;102715;-64
2024/02/12 14:35:12;;;;;;;2.80;0.90;;;;;;;9.23;63.32;97597.06;4931422;28;104198;-64
2024/02/12 14:37:40;;;;;;;5.13;1.23;;;;;;;9.17;63.31;97601.28;4929144;28;103237;-64
2024/02/12 14:40:11;;;;;;;5.13;1.10;;;;;;;9.37;63.10;97609.41;4929395;28;103228;-64
2024/02/12 14:42:42;;;;;;;5.65;1.45;;;;;;;9.08;63.05;97615.59;4932049;28;102700;-64
2024/02/12 14:45:12;;;;;;;10.55;1.40;;;;;;;9.43;63.10;97621.06;4920823;28;104038;-65
2024/02/12 14:47:41;;;;;;;2.15;0.82;;;;;;;9.20;62.84;97631.78;4928314;28;103804;-65
2024/02/12 14:50:12;;;;;;;4.00;1.20;;;;;;;9.05;63.08;97624.72;4906297;28;104316;-62
2024/02/12 14:52:42;;;;;;;3.47;1.10;;;;;;;8.83;63.76;97630.91;4907332;28;102767;-65
2024/02/12 14:55:12;;;;;;;7.50;1.15;;;;;;;9.09;63.84;97636.53;4911361;28;103194;-65
2024/02/12 14:57:40;;;;;;;6.43;1.00;;;;;;;9.00;63.66;97640.28;4909704;28;104142;-65
2024/02/12 15:00:13;;;;;;;4.53;1.23;;;;;;;9.09;63.72;97641.81;4899242;28;103463;-65
2024/02/12 15:02:44;;;;;;;5.10;1.40;;;;;;;9.07;63.41;97648.31;4898143;28;103176;-65
2024/02/12 15:05:14;;;;;;;5.07;1.30;;;;;;;9.22;63.19;97650.91;4909702;28;103291;-66
2024/02/12 15:07:44;;;;;;;3.00;1.05;;;;;;;9.25;62.25;97650.56;4911034;28;104302;-65
2024/02/12 15:10:16;;;;;;;6.65;1.13;;;;;;;8.96;63.46;97657.47;4905082;28;104599;-65
2024/02/12 15:12:46;;;;;;;3.38;0.98;;;;;;;9.24;62.91;97659.47;4908590;28;102741;-65
2024/02/12 15:15:16;;;;;;;6.28;1.33;;;;;;;9.00;62.45;97658.78;4916701;28;104147;-66
2024/02/12 15:17:46;;;;;;;5.72;1.08;;;;;;;8.90;62.09;97668.81;4927152;28;103252;-66
2024/02/12 15:20:17;;;;;;;3.65;1.30;;;;;;;9.03;61.95;97668.16;4932472;28;102978;-66
2024/02/12 15:22:45;;;;;;;3.70;0.95;;;;;;;8.76;62.90;97679.19;4927453;28;102722;-65
2024/02/12 15:25:17;;;;;;;5.88;0.80;;;;;;;8.83;62.15;97681.06;4926337;28;103817;-66
2024/02/12 15:27:46;;;;;;;6.97;1.25;;;;;;;8.99;61.96;97683.53;4925652;28;103285;-66
2024/02/12 15:30:16;;;;;;;2.97;0.98;;;;;;;8.92;62.19;97694.03;4915222;28;103231;-66
2024/02/12 15:32:47;;;;;;;6.25;1.05;;;;;;;9.01;61.92;97694.72;4928005;28;103866;-66
2024/02/12 15:35:16;;;;;;;5.22;1.00;;;;;;;8.87;61.58;97700.84;4929231;28;102707;-66
2024/02/12 15:37:45;;;;;;;5.72;1.02;;;;;;;8.86;61.51;97709.78;4929258;28;102958;-66
2024/02/12 15:40:19;;;;;;;6.80;1.40;;;;;;;8.95;61.55;97711.34;4921020;28;103181;-65
2024/02/12 15:42:48;;;;;;;4.97;0.82;;;;;;;9.00;61.82;97716.03;4931520;28;102961;-66
2024/02/12 15:45:22;;;;;;;3.85;1.13;;;;;;;8.91;62.20;97717.97;4932426;28;102957;-66
2024/02/12 15:47:55;;;;;;;5.15;1.55;;;;;;;8.63;61.15;97722.03;4925555;28;104331;-65
2024/02/12 15:50:26;;;;;;;5.30;1.07;;;;;;;8.61;61.38;97713.47;4915779;28;103224;-66
2024/02/12 15:52:55;;;;;;;4.90;1.35;;;;;;;8.46;62.61;97726.66;4927990;28;102669;-65
2024/02/12 15:55:26;;;;;;;9.48;1.35;;;;;;;8.60;61.72;97729.50;4914483;28;102798;-66
2024/02/12 15:57:54;;;;;;;8.50;1.10;;;;;;;8.34;61.24;97730.66;4927568;28;104133;-66
2024/02/12 16:00:25;;;;;;;4.18;1.20;;;;;;;7.98;63.75;97739.19;4929121;28;103198;-66
2024/02/12 16:02:58;;;;;;;5.78;1.17;;;;;;;7.95;63.81;97739.53;4930549;28;102663;-66
2024/02/12 16:06:05;;;;;;;11.90;1.25;;;;;;;8.07;63.80;97748.69;4897954;28;102795;-65
2024/02/12 16:08:36;;;;;;;3.22;0.90;;;;;;;7.89;65.02;97746.31;4922713;28;103838;-65
2024/02/12 16:11:07;;;;;;;6.40;1.27;;;;;;;7.87;65.59;97758.03;4925097;28;103078;-66
2024/02/12 16:13:35;;;;;;;6.93;1.70;;;;;;;7.77;64.83;97764.34;4921630;28;102734;-66
2024/02/12 16:16:06;;;;;;;5.22;1.30;;;;;;;7.83;65.20;97769.94;4924758;28;104043;-66
2024/02/12 16:18:37;;;;;;;5.45;1.17;;;;;;;7.93;65.32;97771.34;4922335;28;104085;-66
2024/02/12 16:21:07;;;;;;;3.83;1.30;;;;;;;8.15;64.88;97779.47;4914354;28;103115;-66
2024/02/12 16:23:36;;;;;;;6.80;1.30;;;;;;;8.16;65.04;97772.34;4928499;28;102773;-65
2024/02/12 16:26:06;;;;;;;7.45;1.30;;;;;;;8.31;64.94;97781.16;4924384;28;103673;-66
2024/02/12 16:28:35;;;;;;;6.22;1.35;;;;;;;8.20;65.65;97778.91;4926090;28;103381;-66
2024/02/12 16:31:05;;;;;;;5.22;1.33;;;;;;;8.18;65.38;97781.72;4901580;28;103378;-66
2024/02/12 16:33:35;;;;;;;4.30;1.30;;;;;;;8.22;65.43;97783.03;4903580;28;103123;-66
2024/02/12 16:36:07;;;;;;;4.22;1.20;;;;;;;8.18;65.62;97791.47;4888356;28;103216;-65
2024/02/12 16:38:36;;;;;;;5.97;1.20;;;;;;;8.10;65.02;97790.53;4910162;28;103274;-66
2024/02/12 16:41:05;;;;;;;4.43;1.30;;;;;;;8.16;65.77;97804.00;4905094;28;103050;-65
2024/02/12 16:43:35;;;;;;;5.90;1.70;;;;;;;8.21;64.95;97802.47;4905107;28;102935;-65
2024/02/12 16:46:04;;;;;;;5.75;1.90;;;;;;;7.83;66.46;97809.47;4909152;28;103777;-64
2024/02/12 16:48:37;;;;;;;3.53;1.40;;;;;;;7.96;66.18;97817.63;4909427;28;103366;-65
2024/02/12 16:51:07;;;;;;;4.97;1.67;;;;;;;7.82;66.08;97821.00;4908270;28;103226;-65
2024/02/12 16:53:36;;;;;;;5.47;1.65;;;;;;;7.64;66.37;97827.34;4908572;28;103434;-65
2024/02/12 16:56:04;;;;;;;9.00;1.35;;;;;;;7.44;65.94;97822.47;4909951;28;102718;-65
2024/02/12 16:58:32;;;;;;;6.32;1.48;;;;;;;7.67;66.36;97834.09;4899770;28;108178;-64
2024/02/12 17:01:01;;;;;;;7.57;1.52;;;;;;;7.59;65.91;97834.94;4927205;28;103316;-65
2024/02/12 17:03:30;;;;;;;5.65;1.05;;;;;;;7.64;65.97;97838.69;4912898;28;103651;-65
2024/02/12 17:05:59;;;;;;;5.15;1.30;;;;;;;7.57;65.64;97847.44;4919621;28;102912;-65
2024/02/12 17:08:46;;;;;;;8.68;1.36;;;;;;;7.53;66.44;97854.88;4468107;28;10001282;-64
2024/02/12 17:11:14;;;;;;;4.15;1.48;;;;;;;7.56;66.11;97866.88;4919202;28;103281;-64
2024/02/12 17:13:43;;;;;;;4.78;1.23;;;;;;;7.65;66.58;97860.63;4905507;28;103675;-64
2024/02/12 17:16:15;;;;;;;3.80;1.50;;;;;;;7.63;66.32;97870.50;4921454;28;104117;-64
2024/02/12 17:18:57;;;;;;;5.57;1.17;;;;;;;7.55;67.11;97875.81;4922837;28;104064;-64
2024/02/12 17:21:27;;;;;;;5.43;1.95;;;;;;;7.58;67.02;97881.53;4921033;28;103170;-65
2024/02/12 17:23:57;;;;;;;8.05;2.90;;;;;;;7.34;68.14;97885.06;4897763;28;103078;-65
2024/02/12 17:26:26;;;;;;;5.88;2.30;;;;;;;7.27;68.23;97895.44;4913831;28;103279;-64
2024/02/12 17:28:55;;;;;;;9.05;2.22;;;;;;;7.26;68.74;97898.25;4909528;28;104066;-64
2024/02/12 17:31:24;;;;;;;6.00;1.80;;;;;;;7.17;69.65;97907.16;4908857;28;104258;-63
2024/02/12 17:33:54;;;;;;;7.65;3.67;;;;;;;7.11;69.28;97906.81;4907946;28;102663;-64
2024/02/12 17:36:23;;;;;;;8.10;2.90;;;;;;;7.24;68.99;97910.75;4908422;28;102727;-64
2024/02/12 17:38:52;;;;;;;9.10;4.32;;;;;;;7.40;69.22;97904.63;4907307;28;103359;-64
2024/02/12 17:41:22;;;;;;;11.70;5.60;;;;;;;7.43;69.02;97905.13;4906524;28;103298;-64
2024/02/12 17:43:54;;;;;;;10.32;3.83;;;;;;;7.31;69.69;97917.00;4891468;28;103120;-63
2024/02/12 17:46:24;;;;;;;10.05;3.85;;;;;;;7.24;69.71;97921.28;4908741;28;103104;-67
2024/02/12 17:48:54;;;;;;;11.00;3.65;;;;;;;7.17;70.36;97925.59;4905660;28;103419;-64
2024/02/12 17:51:24;;;;;;;7.95;3.25;;;;;;;7.05;70.27;97928.53;4932371;28;103266;-63
2024/02/12 17:53:52;;;;;;;7.57;2.65;;;;;;;6.87;70.83;97939.22;4927111;28;102738;-63
2024/02/12 17:56:22;;;;;;;15.98;6.80;;;;;;;6.85;71.02;97937.72;4930911;28;103611;-63
2024/02/12 17:58:50;;;;;;;9.77;4.38;;;;;;;7.05;70.85;97940.88;4926029;28;104036;-63
2024/02/12 18:01:19;;;;;;;10.98;4.45;;;;;;;6.99;71.08;97944.19;4928107;28;103087;-63
2024/02/12 18:03:51;;;;;;;37.08;13.82;;;;;;;6.88;70.92;97950.59;4930354;28;102650;-63
2024/02/12 18:06:21;;;;;;;38.10;13.65;;;;;;;6.85;71.91;97953.53;4929130;28;102890;-63
2024/02/12 18:08:52;;;;;;;34.25;13.00;;;;;;;6.94;71.33;97955.19;4931379;28;103106;-63
2024/02/12 18:11:22;;;;;;;20.25;7.15;;;;;;;6.96;71.23;97956.66;4928484;28;103203;-63
2024/02/12 18:13:54;;;;;;;12.57;5.07;;;;;;;6.92;70.57;97962.44;4928594;28;102678;-64